createdAt,value
2019-01-25T00:01:32.738Z,100899.42
2019-01-25T00:04:03.368Z,100904.61
2019-01-25T00:06:33.785Z,100908.91
2019-01-25T00:09:06.392Z,100905.91
2019-01-25T00:11:36.950Z,100902.48
2019-01-25T00:14:07.518Z,100902.03
2019-01-25T00:16:38.064Z,100894.26
2019-01-25T00:19:08.397Z,100900.73
2019-01-25T00:21:39.134Z,100896.42
2019-01-25T00:24:12.097Z,100898.14
2019-01-25T00:26:42.538Z,100899.42
2019-01-25T00:29:16.983Z,100906.75
2019-01-25T00:31:47.630Z,100897.24
2019-01-25T00:34:18.060Z,100905.48
2019-01-25T00:36:52.701Z,100901.19
2019-01-25T00:39:23.470Z,100907.20
2019-01-25T00:41:54.023Z,100908.48
2019-01-25T00:44:24.414Z,100909.78
2019-01-25T00:46:54.850Z,100915.84
2019-01-25T00:49:26.191Z,100910.66
2019-01-25T00:51:59.345Z,100908.91
2019-01-25T00:54:29.749Z,100908.49
2019-01-25T00:57:00.130Z,100900.73
2019-01-25T00:59:30.668Z,100896.02
2019-01-25T01:02:01.100Z,100897.31
2019-01-25T01:04:31.927Z,100899.05
2019-01-25T01:07:06.694Z,100898.63
2019-01-25T01:09:41.166Z,100895.58
2019-01-25T01:12:13.621Z,100894.73
2019-01-25T01:14:44.327Z,100893.44
2019-01-25T01:17:14.842Z,100894.28
2019-01-25T01:19:45.491Z,100897.73
2019-01-25T01:22:16.285Z,100899.91
2019-01-25T01:24:47.664Z,100900.34
2019-01-25T01:27:18.112Z,100905.52
2019-01-25T01:29:48.852Z,100915.87
2019-01-25T01:32:19.476Z,100915.45
2019-01-25T01:34:58.427Z,100911.10
2019-01-25T01:37:28.849Z,100911.55
2019-01-25T01:39:59.287Z,100911.58
2019-01-25T01:42:29.746Z,100907.23
2019-01-25T01:45:00.267Z,100903.81
2019-01-25T01:47:30.730Z,100911.19
2019-01-25T01:50:01.115Z,100911.61
2019-01-25T01:52:31.556Z,100908.62
2019-01-25T01:55:01.898Z,100912.48
2019-01-25T01:57:32.315Z,100910.31
2019-01-25T02:00:02.991Z,100905.52
2019-01-25T02:02:33.457Z,100912.86
2019-01-25T02:05:03.856Z,100914.99
2019-01-25T02:07:34.269Z,100915.86
2019-01-25T02:10:05.766Z,100923.62
2019-01-25T02:12:36.311Z,100921.91
2019-01-25T02:15:08.078Z,100926.66
2019-01-25T02:17:38.715Z,100924.14
2019-01-25T02:20:11.323Z,100920.67
2019-01-25T02:22:42.837Z,100924.97
2019-01-25T02:25:13.284Z,100916.78
2019-01-25T02:27:46.790Z,100923.67
2019-01-25T02:30:21.456Z,100923.67
2019-01-25T02:32:52.026Z,100924.95
2019-01-25T02:35:22.546Z,100920.23
2019-01-25T02:37:52.981Z,100915.90
2019-01-25T02:40:25.173Z,100916.78
2019-01-25T02:42:55.934Z,100915.48
2019-01-25T02:45:26.593Z,100915.07
2019-01-25T02:47:57.109Z,100915.05
2019-01-25T02:50:27.466Z,100914.59
2019-01-25T02:53:03.675Z,100919.34
2019-01-25T02:55:30.631Z,100921.05
2019-01-25T02:58:01.128Z,100911.59
2019-01-25T03:00:31.521Z,100914.17
2019-01-25T03:03:01.946Z,100912.00
2019-01-25T03:05:34.627Z,100918.47
2019-01-25T03:08:05.056Z,100919.36
2019-01-25T03:10:35.460Z,100918.05
2019-01-25T03:13:06.049Z,100913.27
2019-01-25T03:15:36.419Z,100917.16
2019-01-25T03:18:09.044Z,100925.80
2019-01-25T03:20:39.773Z,100924.92
2019-01-25T03:23:10.134Z,100918.45
2019-01-25T03:25:40.809Z,100925.80
2019-01-25T03:28:11.191Z,100915.88
2019-01-25T03:30:41.608Z,100924.94
2019-01-25T03:33:12.000Z,100921.91
2019-01-25T03:35:44.516Z,100930.50
2019-01-25T03:38:28.279Z,100922.73
2019-01-25T03:40:59.238Z,100915.43
2019-01-25T03:43:31.276Z,100921.02
2019-01-25T03:46:02.148Z,100915.83
2019-01-25T03:48:32.523Z,100919.30
2019-01-25T03:51:02.966Z,100912.39
2019-01-25T03:53:33.589Z,100915.84
2019-01-25T03:56:04.322Z,100918.02
2019-01-25T03:58:34.614Z,100918.44
2019-01-25T04:01:05.028Z,100916.73
2019-01-25T04:03:35.540Z,100919.33
2019-01-25T04:06:23.485Z,100914.99
2019-01-25T04:08:56.267Z,100917.17
2019-01-25T04:11:26.774Z,100917.64
2019-01-25T04:13:57.166Z,100924.13
2019-01-25T04:16:27.619Z,100921.09
2019-01-25T04:18:58.215Z,100927.61
2019-01-25T04:21:28.665Z,100921.14
2019-01-25T04:23:59.182Z,100921.55
2019-01-25T04:26:29.575Z,100928.45
2019-01-25T04:29:00.402Z,100917.28
2019-01-25T04:31:30.800Z,100926.34
2019-01-25T04:34:02.324Z,100927.17
2019-01-25T04:36:32.768Z,100923.28
2019-01-25T04:39:04.113Z,100920.69
2019-01-25T04:41:34.674Z,100909.05
2019-01-25T04:44:05.683Z,100906.04
2019-01-25T04:46:38.117Z,100900.44
2019-01-25T04:49:10.788Z,100896.55
2019-01-25T04:51:41.216Z,100893.52
2019-01-25T04:54:11.697Z,100906.51
2019-01-25T04:56:42.549Z,100904.81
2019-01-25T04:59:13.223Z,100903.94
2019-01-25T05:01:46.510Z,100903.09
2019-01-25T05:04:17.044Z,100905.65
2019-01-25T05:06:47.486Z,100905.65
2019-01-25T05:09:17.819Z,100905.64
2019-01-25T05:11:49.008Z,100903.92
2019-01-25T05:14:19.560Z,100908.65
2019-01-25T05:16:50.751Z,100910.39
2019-01-25T05:19:21.183Z,100911.69
2019-01-25T05:21:51.810Z,100919.45
2019-01-25T05:24:22.521Z,100926.35
2019-01-25T05:26:58.017Z,100930.66
2019-01-25T05:29:50.068Z,100927.23
2019-01-25T05:32:21.142Z,100930.23
2019-01-25T05:34:51.552Z,100931.55
2019-01-25T05:37:23.408Z,100941.48
2019-01-25T05:39:53.850Z,100938.48
2019-01-25T05:42:24.200Z,100942.80
2019-01-25T05:44:57.421Z,100946.26
2019-01-25T05:47:28.294Z,100947.55
2019-01-25T05:49:58.756Z,100949.28
2019-01-25T05:52:29.370Z,100954.04
2019-01-25T05:54:59.753Z,100957.05
2019-01-25T05:57:30.114Z,100963.11
2019-01-25T06:00:03.548Z,100961.81
2019-01-25T06:02:34.237Z,100969.58
2019-01-25T06:05:05.046Z,100965.69
2019-01-25T06:07:35.443Z,100969.56
2019-01-25T06:10:06.699Z,100966.09
2019-01-25T06:12:37.083Z,100975.16
2019-01-25T06:15:07.746Z,100972.16
2019-01-25T06:17:38.201Z,100962.65
2019-01-25T06:20:08.945Z,100976.48
2019-01-25T06:22:40.953Z,100976.48
2019-01-25T06:25:11.987Z,100976.06
2019-01-25T06:27:44.794Z,100968.70
2019-01-25T06:30:16.849Z,100966.97
2019-01-25T06:32:47.399Z,100973.41
2019-01-25T06:35:18.602Z,100969.52
2019-01-25T06:37:51.901Z,100974.75
2019-01-25T06:40:22.374Z,100977.77
2019-01-25T06:42:52.709Z,100976.48
2019-01-25T06:45:26.302Z,100971.30
2019-01-25T06:47:56.741Z,100969.58
2019-01-25T06:50:27.405Z,100970.42
2019-01-25T06:52:57.933Z,100971.75
2019-01-25T06:55:28.323Z,100965.70
2019-01-25T06:58:09.304Z,100970.89
2019-01-25T07:00:44.119Z,100971.30
2019-01-25T07:03:14.676Z,100968.29
2019-01-25T07:05:48.131Z,100967.00
2019-01-25T07:08:19.440Z,100967.42
2019-01-25T07:10:51.042Z,100969.17
2019-01-25T07:13:21.497Z,100968.72
2019-01-25T07:15:55.128Z,100972.61
2019-01-25T07:18:25.549Z,100979.09
2019-01-25T07:20:57.343Z,100976.48
2019-01-25T07:23:29.616Z,100976.94
2019-01-25T07:26:00.007Z,100979.48
2019-01-25T07:28:30.769Z,100985.53
2019-01-25T07:31:01.320Z,100990.30
2019-01-25T07:33:32.087Z,100985.55
2019-01-25T07:36:02.396Z,100983.83
2019-01-25T07:38:32.921Z,100985.55
2019-01-25T07:41:06.279Z,100979.53
2019-01-25T07:43:36.746Z,100984.67
2019-01-25T07:46:07.566Z,100984.27
2019-01-25T07:48:37.948Z,100986.86
2019-01-25T07:51:08.408Z,100985.14
2019-01-25T07:53:38.867Z,100979.08
2019-01-25T07:56:09.396Z,100988.16
2019-01-25T07:58:39.913Z,100993.78
2019-01-25T08:01:14.689Z,100983.42
2019-01-25T08:03:45.168Z,100990.74
2019-01-25T08:06:18.708Z,100989.02
2019-01-25T08:08:49.275Z,100976.49
2019-01-25T08:11:21.834Z,100980.83
2019-01-25T08:13:52.207Z,100979.09
2019-01-25T08:16:22.729Z,100992.09
2019-01-25T08:18:53.198Z,100989.08
2019-01-25T08:21:23.809Z,100984.73
2019-01-25T08:23:54.167Z,100989.92
2019-01-25T08:26:25.979Z,100995.11
2019-01-25T08:28:56.470Z,100999.87
2019-01-25T08:31:27.042Z,101002.47
2019-01-25T08:33:57.389Z,101010.25
2019-01-25T08:36:27.839Z,101009.83
2019-01-25T08:38:58.160Z,101015.43
2019-01-25T08:41:28.624Z,101006.78
2019-01-25T08:44:01.827Z,101002.05
2019-01-25T08:46:32.555Z,100998.16
2019-01-25T08:49:03.116Z,101015.44
2019-01-25T08:51:33.533Z,101017.19
2019-01-25T08:54:04.117Z,101013.30
2019-01-25T08:56:34.788Z,101015.44
2019-01-25T08:59:05.479Z,101014.14
2019-01-25T09:01:36.275Z,101008.11
2019-01-25T09:04:06.714Z,101012.84
2019-01-25T09:06:36.968Z,101013.72
2019-01-25T09:09:10.405Z,101018.48
2019-01-25T09:11:43.197Z,101014.17
2019-01-25T09:14:13.545Z,101006.80
2019-01-25T09:16:43.928Z,101009.39
2019-01-25T09:19:14.269Z,101002.06
2019-01-25T09:21:45.158Z,101009.38
2019-01-25T09:24:16.684Z,101007.65
2019-01-25T09:26:47.568Z,101011.55
2019-01-25T09:29:18.193Z,101008.95
2019-01-25T09:31:49.396Z,101017.16
2019-01-25T09:34:20.465Z,101016.73
2019-01-25T09:36:52.697Z,101019.31
2019-01-25T09:39:23.457Z,101025.38
2019-01-25T09:41:53.851Z,101027.56
2019-01-25T09:44:25.156Z,101029.28
2019-01-25T09:46:55.568Z,101027.11
2019-01-25T09:49:28.982Z,101029.70
2019-01-25T09:52:02.330Z,101040.07
2019-01-25T09:54:32.737Z,101042.23
2019-01-25T09:57:05.033Z,101045.28
2019-01-25T09:59:35.514Z,101043.53
2019-01-25T10:02:05.923Z,101030.09
2019-01-25T10:04:36.420Z,101017.56
2019-01-25T10:07:06.873Z,101014.07
2019-01-25T10:09:37.528Z,101012.75
2019-01-25T10:12:07.943Z,101019.23
2019-01-25T10:14:38.418Z,101018.80
2019-01-25T10:17:08.900Z,101018.36
2019-01-25T10:19:39.235Z,101015.31
2019-01-25T10:22:09.703Z,101021.77
2019-01-25T10:24:40.093Z,101020.45
2019-01-25T10:27:10.413Z,101011.34
2019-01-25T10:29:40.805Z,101013.50
2019-01-25T10:32:11.329Z,101009.55
2019-01-25T10:34:41.775Z,101005.22
2019-01-25T10:37:12.574Z,101000.88
2019-01-25T10:39:43.475Z,101002.64
2019-01-25T10:42:14.233Z,100998.27
2019-01-25T10:44:44.637Z,100991.77
2019-01-25T10:47:14.962Z,100993.50
2019-01-25T10:49:45.349Z,100989.20
2019-01-25T10:52:16.142Z,100983.64
2019-01-25T10:54:46.576Z,100981.01
2019-01-25T10:57:17.091Z,100970.64
2019-01-25T10:59:47.802Z,100968.87
2019-01-25T11:02:18.207Z,100962.34
2019-01-25T11:04:50.193Z,100961.91
2019-01-25T11:07:22.798Z,100961.44
2019-01-25T11:09:53.198Z,100962.70
2019-01-25T11:12:25.130Z,100963.96
2019-01-25T11:14:55.650Z,100962.19
2019-01-25T11:17:26.082Z,100964.08
2019-01-25T11:19:59.255Z,100955.47
2019-01-25T11:22:29.990Z,100954.14
2019-01-25T11:25:00.627Z,100955.02
2019-01-25T11:27:32.208Z,100948.48
2019-01-25T11:30:02.644Z,100937.67
2019-01-25T11:32:32.996Z,100943.27
2019-01-25T11:35:04.841Z,100951.90
2019-01-25T11:37:35.240Z,100950.53
2019-01-25T11:40:10.208Z,100939.70
2019-01-25T11:42:40.565Z,100930.52
2019-01-25T11:45:11.465Z,100935.66
2019-01-25T11:47:44.174Z,100930.80
2019-01-25T11:50:15.675Z,100927.25
2019-01-25T11:52:46.199Z,100928.08
2019-01-25T11:55:16.981Z,100926.84
2019-01-25T11:57:47.457Z,100926.48
2019-01-25T12:00:20.631Z,100919.17
2019-01-25T12:02:51.335Z,100908.31
2019-01-25T12:05:22.872Z,100913.88
2019-01-25T12:07:54.496Z,100909.48
2019-01-25T12:10:29.496Z,100909.84
2019-01-25T12:12:59.856Z,100925.88
2019-01-25T12:15:30.305Z,100925.41
2019-01-25T12:18:00.733Z,100919.14
2019-01-25T12:20:31.777Z,100922.89
2019-01-25T12:23:02.895Z,100927.06
2019-01-25T12:25:33.240Z,100924.72
2019-01-25T12:28:05.274Z,100924.70
2019-01-25T12:30:38.372Z,100933.42
2019-01-25T12:33:09.902Z,100929.09
2019-01-25T12:35:42.338Z,100926.95
2019-01-25T12:38:12.768Z,100923.79
2019-01-25T12:40:43.219Z,100921.47
2019-01-25T12:43:13.630Z,100926.52
2019-01-25T12:45:44.021Z,100927.22
2019-01-25T12:48:14.455Z,100914.58
2019-01-25T12:50:49.182Z,100899.72
2019-01-25T12:53:20.983Z,100888.47
2019-01-25T12:55:51.472Z,100874.98
2019-01-25T12:58:21.857Z,100879.83
2019-01-25T13:00:54.191Z,100878.98
2019-01-25T13:03:26.839Z,100884.16
2019-01-25T13:05:57.801Z,100881.95
2019-01-25T13:08:30.550Z,100884.48
2019-01-25T13:11:03.634Z,100883.16
2019-01-25T13:13:36.299Z,100884.72
2019-01-25T13:16:06.677Z,100885.06
2019-01-25T13:18:37.231Z,100883.73
2019-01-25T13:21:07.690Z,100882.64
2019-01-25T13:23:38.961Z,100874.46
2019-01-25T13:26:09.481Z,100875.69
2019-01-25T13:28:41.709Z,100877.02
2019-01-25T13:31:11.981Z,100887.83
2019-01-25T13:33:42.376Z,100885.34
2019-01-25T13:36:14.224Z,100877.52
2019-01-25T13:38:44.548Z,100881.52
2019-01-25T13:41:14.895Z,100878.42
2019-01-25T13:43:45.238Z,100874.03
2019-01-25T13:46:15.646Z,100874.87
2019-01-25T13:48:46.571Z,100865.71
2019-01-25T13:51:17.049Z,100863.05
2019-01-25T13:53:47.383Z,100866.97
2019-01-25T13:56:17.833Z,100856.97
2019-01-25T13:58:49.934Z,100856.53
2019-01-25T14:01:20.650Z,100861.00
2019-01-25T14:03:51.159Z,100856.78
2019-01-25T14:06:21.623Z,100853.28
2019-01-25T14:08:53.616Z,100848.51
2019-01-25T14:11:24.028Z,100835.83
2019-01-25T14:13:54.444Z,100829.76
2019-01-25T14:16:24.784Z,100830.15
2019-01-25T14:18:55.304Z,100824.08
2019-01-25T14:21:25.587Z,100817.62
2019-01-25T14:23:56.003Z,100809.77
2019-01-25T14:26:26.388Z,100794.04
2019-01-25T14:28:56.833Z,100784.91
2019-01-25T14:31:27.200Z,100785.32
2019-01-25T14:33:57.569Z,100780.02
2019-01-25T14:36:28.228Z,100772.74
2019-01-25T14:38:58.578Z,100769.70
2019-01-25T14:41:28.962Z,100770.56
2019-01-25T14:43:59.318Z,100766.28
2019-01-25T14:46:29.775Z,100765.38
2019-01-25T14:49:00.335Z,100777.95
2019-01-25T14:51:31.154Z,100766.70
2019-01-25T14:54:01.549Z,100772.87
2019-01-25T14:56:34.499Z,100769.37
2019-01-25T14:59:05.069Z,100764.62
2019-01-25T15:01:35.480Z,100762.50
2019-01-25T15:04:05.976Z,100759.56
2019-01-25T15:06:36.347Z,100761.30
2019-01-25T15:09:09.821Z,100768.66
2019-01-25T15:11:40.232Z,100770.81
2019-01-25T15:14:10.752Z,100771.24
2019-01-25T15:16:41.226Z,100778.63
2019-01-25T15:19:11.711Z,100780.34
2019-01-25T15:21:42.348Z,100784.26
2019-01-25T15:24:14.510Z,100786.43
2019-01-25T15:26:44.924Z,100786.89
2019-01-25T15:29:16.109Z,100791.27
2019-01-25T15:31:46.503Z,100793.48
2019-01-25T15:34:17.020Z,100787.87
2019-01-25T15:36:48.867Z,100778.33
2019-01-25T15:39:19.497Z,100774.86
2019-01-25T15:41:49.811Z,100758.27
2019-01-25T15:44:20.250Z,100756.52
2019-01-25T15:46:54.322Z,100751.25
2019-01-25T15:49:24.800Z,100764.78
2019-01-25T15:51:55.173Z,100767.84
2019-01-25T15:54:26.557Z,100761.46
2019-01-25T15:56:57.252Z,100760.23
2019-01-25T15:59:27.711Z,100761.16
2019-01-25T16:01:58.396Z,100766.55
2019-01-25T16:04:34.792Z,100765.86
2019-01-25T16:07:00.989Z,100759.45
2019-01-25T16:09:31.432Z,100756.13
2019-01-25T16:12:01.846Z,100747.58
2019-01-25T16:14:32.303Z,100755.37
2019-01-25T16:17:02.802Z,100764.96
2019-01-25T16:19:33.256Z,100763.28
2019-01-25T16:22:03.740Z,100760.30
2019-01-25T16:24:34.199Z,100759.84
2019-01-25T16:27:04.842Z,100756.03
2019-01-25T16:29:35.360Z,100757.84
2019-01-25T16:32:11.912Z,100746.94
2019-01-25T16:34:42.293Z,100751.41
2019-01-25T16:37:12.825Z,100744.89
2019-01-25T16:39:45.478Z,100735.41
2019-01-25T16:42:18.286Z,100731.92
2019-01-25T16:44:48.960Z,100740.66
2019-01-25T16:47:19.342Z,100722.39
2019-01-25T16:49:49.720Z,100720.77
2019-01-25T16:52:21.443Z,100704.66
2019-01-25T16:54:51.844Z,100698.69
2019-01-25T16:57:25.159Z,100701.34
2019-01-25T16:59:55.621Z,100690.95
2019-01-25T17:02:26.021Z,100690.53
2019-01-25T17:04:56.468Z,100694.91
2019-01-25T17:07:28.972Z,100697.91
2019-01-25T17:10:02.443Z,100694.34
2019-01-25T17:12:32.775Z,100694.89
2019-01-25T17:15:03.403Z,100695.30
2019-01-25T17:17:33.826Z,100689.62
2019-01-25T17:20:04.742Z,100688.30
2019-01-25T17:22:37.548Z,100687.06
2019-01-25T17:25:09.586Z,100680.53
2019-01-25T17:27:40.220Z,100682.22
2019-01-25T17:30:14.978Z,100670.89
2019-01-25T17:32:45.476Z,100674.81
2019-01-25T17:35:15.892Z,100674.33
2019-01-25T17:37:46.330Z,100671.67
2019-01-25T17:40:17.848Z,100666.06
2019-01-25T17:42:48.264Z,100672.52
2019-01-25T17:45:18.674Z,100669.48
2019-01-25T17:47:49.011Z,100665.13
2019-01-25T17:50:19.676Z,100670.72
2019-01-25T17:52:50.045Z,100672.50
2019-01-25T17:55:20.521Z,100661.61
2019-01-25T17:57:50.960Z,100651.67
2019-01-25T18:00:37.390Z,100649.89
2019-01-25T18:03:08.632Z,100645.55
2019-01-25T18:05:41.600Z,100645.91
2019-01-25T18:08:12.335Z,100653.30
2019-01-25T18:10:42.848Z,100658.06
2019-01-25T18:13:25.810Z,100650.72
2019-01-25T18:15:56.507Z,100639.48
2019-01-25T18:18:27.014Z,100638.18
2019-01-25T18:20:57.438Z,100637.73
2019-01-25T18:23:30.662Z,100641.62
2019-01-25T18:26:12.779Z,100635.13
2019-01-25T18:28:56.613Z,100635.09
2019-01-25T18:31:30.614Z,100626.44
2019-01-25T18:34:02.271Z,100621.69
2019-01-25T18:36:33.815Z,100627.27
2019-01-25T18:39:08.353Z,100625.52
2019-01-25T18:41:42.324Z,100625.97
2019-01-25T18:44:12.796Z,100632.48
2019-01-25T18:46:43.180Z,100631.16
2019-01-25T18:49:13.701Z,100629.02
2019-01-25T18:51:44.338Z,100634.22
2019-01-25T18:54:14.816Z,100629.04
2019-01-25T18:56:47.851Z,100626.39
2019-01-25T18:59:18.724Z,100623.78
2019-01-25T19:01:49.898Z,100616.91
2019-01-25T19:04:21.118Z,100607.80
2019-01-25T19:06:52.566Z,100606.06
2019-01-25T19:09:23.400Z,100606.94
2019-01-25T19:11:53.953Z,100609.95
2019-01-25T19:14:24.368Z,100610.87
2019-01-25T19:16:54.838Z,100608.69
2019-01-25T19:19:25.281Z,100602.16
2019-01-25T19:21:56.126Z,100597.00
2019-01-25T19:24:28.415Z,100599.61
2019-01-25T19:27:01.461Z,100596.98
2019-01-25T19:29:33.085Z,100590.52
2019-01-25T19:32:06.479Z,100588.81
2019-01-25T19:34:37.789Z,100588.30
2019-01-25T19:37:09.141Z,100595.30
2019-01-25T19:39:40.354Z,100590.45
2019-01-25T19:42:11.776Z,100593.53
2019-01-25T19:44:43.323Z,100593.13
2019-01-25T19:47:17.846Z,100587.92
2019-01-25T19:49:49.091Z,100586.62
2019-01-25T19:52:20.519Z,100584.86
2019-01-25T19:54:51.449Z,100577.94
2019-01-25T19:57:22.879Z,100581.06
2019-01-25T19:59:54.392Z,100572.00
2019-01-25T20:02:25.824Z,100585.82
2019-01-25T20:04:56.289Z,100574.59
2019-01-25T20:07:27.772Z,100584.14
2019-01-25T20:09:58.298Z,100572.42
2019-01-25T20:12:30.861Z,100569.80
2019-01-25T20:15:01.437Z,100566.73
2019-01-25T20:17:32.375Z,100560.23
2019-01-25T20:20:02.795Z,100568.47
2019-01-25T20:22:35.064Z,100567.62
2019-01-25T20:25:06.180Z,100560.72
2019-01-25T20:27:37.608Z,100560.28
2019-01-25T20:30:13.756Z,100555.53
2019-01-25T20:32:44.258Z,100555.59
2019-01-25T20:35:18.943Z,100558.62
2019-01-25T20:37:51.203Z,100553.41
2019-01-25T20:40:21.711Z,100551.68
2019-01-25T20:42:52.160Z,100540.81
2019-01-25T20:45:27.345Z,100539.02
2019-01-25T20:47:57.750Z,100546.38
2019-01-25T20:50:32.143Z,100543.80
2019-01-25T20:53:03.021Z,100541.17
2019-01-25T20:55:33.822Z,100546.38
2019-01-25T20:58:04.649Z,100539.84
2019-01-25T21:00:36.853Z,100547.19
2019-01-25T21:03:10.576Z,100538.92
2019-01-25T21:05:41.169Z,100534.55
2019-01-25T21:08:11.729Z,100533.23
2019-01-25T21:10:42.473Z,100532.25
2019-01-25T21:13:13.664Z,100526.15
2019-01-25T21:15:44.088Z,100531.33
2019-01-25T21:18:14.515Z,100527.40
2019-01-25T21:20:46.814Z,100531.66
2019-01-25T21:23:17.289Z,100529.89
2019-01-25T21:25:48.521Z,100529.83
2019-01-25T21:28:19.230Z,100524.60
2019-01-25T21:30:55.830Z,100525.78
2019-01-25T21:33:28.055Z,100524.40
2019-01-25T21:35:58.399Z,100532.63
2019-01-25T21:38:31.803Z,100531.66
2019-01-25T21:41:02.218Z,100534.23
2019-01-25T21:43:32.962Z,100528.16
2019-01-25T21:46:03.568Z,100525.88
2019-01-25T21:48:34.424Z,100521.50
2019-01-25T21:51:05.264Z,100517.41
2019-01-25T21:53:35.797Z,100518.56
2019-01-25T21:56:06.491Z,100514.25
2019-01-25T21:58:37.111Z,100507.70
2019-01-25T22:01:07.596Z,100510.34
2019-01-25T22:03:37.989Z,100508.17
2019-01-25T22:06:08.991Z,100510.19
2019-01-25T22:08:39.605Z,100504.51
2019-01-25T22:11:10.485Z,100500.03
2019-01-25T22:13:41.079Z,100497.33
2019-01-25T22:16:11.516Z,100500.53
2019-01-25T22:18:42.025Z,100492.66
2019-01-25T22:21:12.498Z,100492.66
2019-01-25T22:23:46.494Z,100496.90
2019-01-25T22:26:17.950Z,100496.03
2019-01-25T22:28:52.542Z,100493.29
2019-01-25T22:31:31.893Z,100486.38
2019-01-25T22:34:17.798Z,100488.94
2019-01-25T22:37:13.876Z,100481.56
2019-01-25T22:39:45.044Z,100464.18
2019-01-25T22:44:51.442Z,100470.63
2019-01-25T22:47:21.801Z,100469.26
2019-01-25T22:49:52.285Z,100461.33
2019-01-25T22:52:22.896Z,100467.02
2019-01-25T22:54:53.268Z,100473.87
2019-01-25T22:57:23.751Z,100469.55
2019-01-25T22:59:59.264Z,100481.29
2019-01-25T23:02:29.707Z,100470.39
2019-01-25T23:05:22.076Z,100472.06
2019-01-25T23:07:58.506Z,100475.03
2019-01-25T23:10:28.995Z,100465.87
2019-01-25T23:13:02.429Z,100458.44
2019-01-25T23:15:33.126Z,100451.52
2019-01-25T23:18:07.777Z,100456.67
2019-01-25T23:20:38.277Z,100452.32
2019-01-25T23:23:08.775Z,100459.60
2019-01-25T23:25:39.239Z,100460.00
2019-01-25T23:28:09.693Z,100459.53
2019-01-25T23:30:40.502Z,100453.77
2019-01-25T23:33:11.440Z,100457.72
2019-01-25T23:35:44.188Z,100462.90
2019-01-25T23:38:14.602Z,100462.75
2019-01-25T23:40:47.858Z,100472.36
2019-01-25T23:43:18.263Z,100472.43
2019-01-25T23:45:48.714Z,100470.18
2019-01-25T23:48:19.392Z,100471.48
2019-01-25T23:50:51.441Z,100462.28
2019-01-25T23:53:22.005Z,100463.95
2019-01-25T23:55:55.664Z,100461.34
2019-01-25T23:58:27.886Z,100458.62
